X  Kiinni Metar Aviation säätiedot     EFPO Pori Airport
Lämpötila
1°C Lämpötila
-1°C Kastepiste
87% Kosteus



Tuuli
3 M/S
6 MPH
10 KM/T
5 KTS



110°
IEI
Nykyiset olosuhteet

Pilvinen Pilvinen
Paine 1027.92 (hPa) - 30.35 (inHg)
Näkyvyys 6.2 (maili) - 10 (km)
Lentokenttä
Lentokentän koodi EFPO

Sijainti: Pori Airport
Etäisyys: 40 (km)

Metar:
EFPO 291250Z AUTO 11005KT 9999 OVC041 01/M01 Q1028

Aika: 29-11-2020 14:50 EET